KDSM/DSM METAR and TAF weather

Enter ICAO airport designator
Station Type Date Time Source
KDSM METAR 2023/03/30 23:54 UTC NOAA

KDSM 302354Z 17015G25KT 10SM OVC046 18/09 A2966 RMK AO2 PK WND 17031/2255 SLP047 T01830089 10211 20150 56023


Station Type Date Time Source
KDSM Decoded METAR 2023/03/30 23:54 UTC NOAA

DES MOINES INTERNATIONAL, IA, United States (KDSM) 41-32N 93-40W 295M
Mar 30, 2023 - 07:54 PM EDT / 2023.03.30 2354 UTC
Wind: from the S (170 degrees) at 17 MPH (15 KT) gusting to 29 MPH (25 KT):0
Visibility: 10 mile(s):0
Sky conditions: overcast
Temperature: 64.9 F (18.3 C)
Dew Point: 48.0 F (8.9 C)
Relative Humidity: 54%
Pressure (altimeter): 29.66 in. Hg (1004 hPa)
Pressure tendency: 0.07 inches (2.3 hPa) lower than three hours ago
ob: KDSM 302354Z 17015G25KT 10SM OVC046 18/09 A2966 RMK AO2 PK WND 17031/2255 SLP047 T01830089 10211 20150 56023
cycle: 0

Station Type Date Time Source
KDSM TAF 2023/03/30 18:22 UTC NOAA

TAF KDSM 301720Z 3018/3118 13015KT P6SM BKN120 BKN250
FM302000 17019G30KT P6SM BKN050
FM310100 18022G33KT P6SM OVC027
FM310500 19024G37KT P6SM VCSH OVC018
FM310900 20020G32KT P6SM BKN008 WS020/21045KT
FM311500 21019G30KT P6SM BKN015

Example: see airport list